Time;durP1;ratioP1;P1;durP2;ratioP2;P2;SDS_P1;SDS_P2;PMS_P1;PMS_P2;Temp;Humidity;BMP_temperature;BMP_pressure;BME280_temperature;BME280_humidity;BME280_pressure;Samples;Min_cycle;Max_cycle;Signal;HPM_P1;HPM_P2
2024/01/18 00:02:22;;;;;;;8.70;7.90;;;0.80;99.90;;;;;;5082446;28;20999;-78
2024/01/18 00:04:49;;;;;;;9.93;9.05;;;0.90;99.90;;;;;;5086025;28;20248;-77
2024/01/18 00:07:16;;;;;;;9.80;8.90;;;0.80;99.90;;;;;;5085976;28;20244;-78
2024/01/18 00:09:43;;;;;;;10.00;9.20;;;0.80;99.90;;;;;;5083983;28;20201;-78
2024/01/18 00:12:11;;;;;;;9.05;8.35;;;0.70;99.90;;;;;;5084003;28;20213;-78
2024/01/18 00:14:38;;;;;;;10.18;9.27;;;0.70;99.90;;;;;;5086212;28;20224;-78
2024/01/18 00:17:06;;;;;;;9.18;8.43;;;0.70;99.90;;;;;;5084394;27;20812;-78
2024/01/18 00:19:34;;;;;;;9.30;8.50;;;0.70;99.90;;;;;;5082741;27;20205;-78
2024/01/18 00:22:02;;;;;;;9.65;8.85;;;0.70;99.90;;;;;;5085956;28;20213;-78
2024/01/18 00:24:29;;;;;;;9.57;8.77;;;0.80;99.90;;;;;;5091845;28;20197;-78
2024/01/18 00:26:56;;;;;;;9.85;9.02;;;0.80;99.90;;;;;;5083187;28;20678;-78
2024/01/18 00:29:23;;;;;;;10.82;9.82;;;0.80;99.90;;;;;;5085923;28;20205;-78
2024/01/18 00:31:50;;;;;;;9.82;9.02;;;0.80;99.90;;;;;;5080243;28;20642;-78
2024/01/18 00:34:18;;;;;;;9.68;8.77;;;0.70;99.90;;;;;;5083140;28;20218;-78
2024/01/18 00:36:46;;;;;;;8.70;7.93;;;0.60;99.90;;;;;;5077795;28;20629;-78
2024/01/18 00:39:19;;;;;;;8.70;7.90;;;0.60;99.90;;;;;;5086902;28;20728;-77
2024/01/18 00:41:46;;;;;;;7.93;7.32;;;0.60;99.90;;;;;;5081056;28;20297;-77
2024/01/18 00:44:13;;;;;;;7.63;7.03;;;0.70;99.90;;;;;;5076338;28;20195;-77
2024/01/18 00:46:40;;;;;;;8.30;7.63;;;0.70;99.90;;;;;;5075450;28;20308;-78
2024/01/18 00:49:07;;;;;;;9.23;8.43;;;0.80;99.90;;;;;;5085899;28;20241;-78
2024/01/18 00:51:35;;;;;;;8.57;7.85;;;0.80;99.90;;;;;;5080368;28;20222;-77
2024/01/18 00:54:03;;;;;;;8.60;7.80;;;0.70;99.90;;;;;;5078546;28;20213;-77
2024/01/18 00:56:30;;;;;;;8.13;7.43;;;0.60;99.90;;;;;;5075789;28;20307;-79
2024/01/18 00:58:57;;;;;;;8.15;7.53;;;0.60;99.90;;;;;;5057815;28;20214;-78
2024/01/18 01:01:24;;;;;;;8.75;7.93;;;0.60;99.90;;;;;;5065543;28;21147;-77
2024/01/18 01:03:51;;;;;;;7.43;6.90;;;0.60;99.90;;;;;;5081682;28;20197;-77
2024/01/18 01:06:18;;;;;;;10.02;9.15;;;0.70;99.90;;;;;;5081158;28;20225;-77
2024/01/18 01:08:47;;;;;;;8.55;7.85;;;0.70;99.90;;;;;;5080299;28;20612;-77
2024/01/18 01:11:14;;;;;;;8.77;8.07;;;0.70;99.90;;;;;;5084562;28;20201;-77
2024/01/18 01:13:41;;;;;;;9.00;8.20;;;0.70;99.90;;;;;;5084695;28;20228;-77
2024/01/18 01:16:08;;;;;;;8.63;7.82;;;0.80;99.90;;;;;;5086125;28;20278;-77
2024/01/18 01:18:36;;;;;;;8.38;7.78;;;0.70;99.90;;;;;;5081561;28;20217;-77
2024/01/18 01:21:03;;;;;;;8.95;8.18;;;0.70;99.90;;;;;;5084457;28;20275;-77
2024/01/18 01:23:30;;;;;;;8.80;8.10;;;0.70;99.90;;;;;;5080368;28;20225;-77
2024/01/18 01:26:01;;;;;;;8.60;7.95;;;0.80;99.90;;;;;;5080881;28;20221;-77
2024/01/18 01:28:28;;;;;;;9.35;8.55;;;0.80;99.90;;;;;;5082819;28;20223;-77
2024/01/18 01:30:55;;;;;;;8.77;8.07;;;0.80;99.90;;;;;;5081438;28;20814;-77
2024/01/18 01:33:22;;;;;;;8.55;7.78;;;0.80;99.90;;;;;;5081101;28;20225;-77
2024/01/18 01:35:49;;;;;;;8.60;7.90;;;0.80;99.90;;;;;;5081757;28;20229;-77
2024/01/18 01:38:17;;;;;;;8.98;8.25;;;0.80;99.90;;;;;;5084420;27;20224;-77
2024/01/18 01:40:44;;;;;;;9.90;9.10;;;0.80;99.90;;;;;;5083026;28;20197;-77
2024/01/18 01:43:13;;;;;;;8.85;8.15;;;0.80;99.90;;;;;;5082557;28;20249;-78
2024/01/18 01:45:40;;;;;;;8.68;7.97;;;0.70;99.90;;;;;;5079478;28;20221;-78
2024/01/18 01:48:08;;;;;;;8.60;7.97;;;0.80;99.90;;;;;;5082793;28;20345;-78
2024/01/18 01:50:36;;;;;;;7.97;7.38;;;0.80;99.90;;;;;;5090432;28;20232;-77
2024/01/18 01:53:04;;;;;;;8.82;8.13;;;0.90;99.90;;;;;;5080809;28;20221;-78
2024/01/18 01:55:31;;;;;;;8.65;7.88;;;0.90;99.90;;;;;;5079953;28;20221;-77
2024/01/18 01:57:59;;;;;;;9.38;8.57;;;1.00;99.90;;;;;;5082304;28;20884;-77
2024/01/18 02:00:27;;;;;;;9.55;8.77;;;1.00;99.90;;;;;;5084513;28;20236;-78
2024/01/18 02:02:55;;;;;;;8.23;7.60;;;1.00;99.90;;;;;;5089274;28;20222;-77
2024/01/18 02:05:22;;;;;;;9.27;8.48;;;1.00;99.90;;;;;;5083093;28;20735;-77
2024/01/18 02:07:49;;;;;;;9.30;8.40;;;1.00;99.90;;;;;;5082327;28;20234;-76
2024/01/18 02:10:16;;;;;;;8.88;8.18;;;1.00;99.90;;;;;;5088611;28;20201;-78
2024/01/18 02:12:44;;;;;;;8.20;7.57;;;1.00;99.90;;;;;;5085297;28;20244;-77
2024/01/18 02:15:12;;;;;;;8.90;8.07;;;1.00;99.90;;;;;;5087172;28;20730;-78
2024/01/18 02:17:40;;;;;;;7.82;7.22;;;1.00;99.90;;;;;;5083369;27;20213;-78
2024/01/18 02:20:08;;;;;;;7.50;6.90;;;1.00;99.90;;;;;;5081473;28;20210;-78
2024/01/18 02:22:39;;;;;;;8.10;7.50;;;1.10;99.90;;;;;;5095084;28;20221;-78
2024/01/18 02:25:24;;;;;;;9.18;8.38;;;1.10;99.90;;;;;;5089646;28;20779;-78
2024/01/18 02:27:54;;;;;;;8.73;7.93;;;1.10;99.90;;;;;;5092804;28;20212;-78
2024/01/18 02:30:21;;;;;;;9.25;8.50;;;1.10;99.90;;;;;;5094886;28;20250;-79
2024/01/18 02:32:48;;;;;;;9.10;8.20;;;1.10;99.90;;;;;;5084987;28;20225;-78
2024/01/18 02:35:16;;;;;;;8.85;8.07;;;1.10;99.90;;;;;;5088258;28;20621;-77
2024/01/18 02:37:43;;;;;;;9.32;8.63;;;1.10;99.90;;;;;;5095008;27;20221;-78
2024/01/18 02:40:11;;;;;;;8.02;7.32;;;1.10;99.90;;;;;;5092795;28;20208;-79
2024/01/18 02:42:40;;;;;;;7.93;7.25;;;1.00;99.90;;;;;;5088027;28;20217;-78
2024/01/18 02:45:08;;;;;;;8.00;7.30;;;1.00;99.90;;;;;;5086856;28;20243;-78
2024/01/18 02:47:36;;;;;;;7.95;7.25;;;1.10;99.90;;;;;;5088556;27;20223;-77
2024/01/18 02:50:03;;;;;;;7.30;6.70;;;1.00;99.90;;;;;;5090749;28;20221;-77
2024/01/18 02:52:30;;;;;;;8.40;7.70;;;1.00;99.90;;;;;;5081866;28;20237;-77
2024/01/18 02:54:57;;;;;;;8.07;7.38;;;1.10;99.90;;;;;;5082630;28;20217;-78
2024/01/18 02:57:24;;;;;;;7.63;7.03;;;1.10;99.90;;;;;;5084368;28;20232;-76
2024/01/18 02:59:52;;;;;;;7.68;7.07;;;1.10;99.90;;;;;;5092571;28;20754;-76
2024/01/18 03:02:20;;;;;;;8.20;7.60;;;1.10;99.90;;;;;;5081721;28;20217;-77
2024/01/18 03:04:47;;;;;;;7.88;7.22;;;1.10;99.90;;;;;;5085908;28;20809;-78
2024/01/18 03:07:14;;;;;;;9.18;8.27;;;1.10;99.90;;;;;;5085490;28;20228;-77
2024/01/18 03:09:41;;;;;;;8.23;7.50;;;1.10;99.90;;;;;;5085457;28;20193;-77
2024/01/18 03:12:08;;;;;;;9.20;8.43;;;1.00;99.90;;;;;;5082434;28;20726;-77
2024/01/18 03:14:35;;;;;;;8.98;8.27;;;0.90;99.90;;;;;;5082658;28;20309;-78
2024/01/18 03:17:04;;;;;;;9.95;8.95;;;0.80;99.90;;;;;;5087166;28;20225;-78
2024/01/18 03:19:31;;;;;;;9.23;8.40;;;0.70;99.90;;;;;;5084703;28;20197;-77
2024/01/18 03:21:58;;;;;;;9.45;8.60;;;0.80;99.90;;;;;;5084261;28;20631;-77
2024/01/18 03:24:25;;;;;;;8.30;7.60;;;0.80;99.90;;;;;;5089947;28;20839;-76
2024/01/18 03:26:52;;;;;;;8.18;7.53;;;0.80;99.90;;;;;;5084844;28;20232;-77
2024/01/18 03:29:19;;;;;;;8.70;7.95;;;0.80;99.90;;;;;;5082218;28;20229;-77
2024/01/18 03:31:46;;;;;;;8.23;7.53;;;0.80;99.90;;;;;;5081538;28;20953;-77
2024/01/18 03:34:15;;;;;;;7.75;7.15;;;0.80;99.90;;;;;;5078363;28;20213;-77
2024/01/18 03:36:43;;;;;;;8.13;7.43;;;0.90;99.90;;;;;;5082075;28;20256;-78
2024/01/18 03:39:10;;;;;;;7.68;6.97;;;0.90;99.90;;;;;;5089265;28;20811;-78
2024/01/18 03:41:37;;;;;;;8.40;7.70;;;1.00;99.90;;;;;;5081775;28;20247;-78
2024/01/18 03:44:04;;;;;;;9.75;8.85;;;1.00;99.90;;;;;;5083244;28;20198;-78
2024/01/18 03:46:31;;;;;;;11.45;10.35;;;0.90;99.90;;;;;;5090616;27;20233;-79
2024/01/18 03:48:58;;;;;;;10.32;9.43;;;0.90;99.90;;;;;;5092302;28;20212;-79
2024/01/18 03:51:27;;;;;;;9.88;9.07;;;0.80;99.90;;;;;;5086938;28;20632;-78
2024/01/18 03:53:54;;;;;;;9.55;8.65;;;0.70;99.90;;;;;;5089751;28;20241;-78
2024/01/18 03:56:21;;;;;;;9.00;8.20;;;0.70;99.90;;;;;;5084450;28;20248;-77
2024/01/18 03:58:48;;;;;;;10.00;9.15;;;0.80;99.90;;;;;;5078559;28;20232;-77
2024/01/18 04:01:15;;;;;;;9.55;8.75;;;0.80;99.90;;;;;;5084704;28;20236;-77
2024/01/18 04:03:43;;;;;;;9.27;8.57;;;0.80;99.90;;;;;;5081189;28;20210;-76
2024/01/18 04:06:11;;;;;;;9.43;8.70;;;0.90;99.90;;;;;;5078000;28;20297;-78
2024/01/18 04:08:40;;;;;;;8.75;7.95;;;0.90;99.90;;;;;;5079519;28;20236;-77
2024/01/18 04:11:07;;;;;;;9.48;8.68;;;0.90;99.90;;;;;;5090653;28;20223;-77
2024/01/18 04:13:34;;;;;;;8.60;7.95;;;1.00;99.90;;;;;;5080352;27;21671;-77
2024/01/18 04:16:01;;;;;;;8.32;7.65;;;1.00;99.90;;;;;;5080576;28;20217;-77
2024/01/18 04:18:28;;;;;;;8.52;7.82;;;1.00;99.90;;;;;;5082241;28;20225;-76
2024/01/18 04:20:55;;;;;;;7.90;7.28;;;1.10;99.90;;;;;;5082757;28;20789;-76
2024/01/18 04:23:23;;;;;;;7.25;6.75;;;1.10;99.90;;;;;;5080073;28;20221;-77
2024/01/18 04:25:52;;;;;;;7.30;6.80;;;1.10;99.90;;;;;;5078468;28;20225;-76
2024/01/18 04:28:19;;;;;;;7.57;6.97;;;1.20;99.90;;;;;;5084258;28;20270;-79
2024/01/18 04:30:46;;;;;;;7.53;7.03;;;1.20;99.90;;;;;;5088708;28;20241;-78
2024/01/18 04:33:14;;;;;;;8.35;7.55;;;1.20;99.90;;;;;;5089984;28;20224;-76
2024/01/18 04:35:41;;;;;;;8.90;8.13;;;1.20;99.90;;;;;;5085594;28;20576;-76
2024/01/18 04:38:08;;;;;;;7.85;7.22;;;1.20;99.90;;;;;;5087253;28;20229;-77
2024/01/18 04:40:35;;;;;;;8.25;7.55;;;1.20;99.90;;;;;;5089745;28;20563;-77
2024/01/18 04:43:04;;;;;;;8.52;7.72;;;1.20;99.90;;;;;;5085127;28;20213;-78
2024/01/18 04:45:31;;;;;;;7.47;6.88;;;1.20;99.90;;;;;;5083351;28;20209;-78
2024/01/18 04:47:59;;;;;;;8.30;7.60;;;1.20;99.90;;;;;;5085734;27;20848;-77
2024/01/18 04:50:26;;;;;;;7.82;7.15;;;1.20;99.90;;;;;;5090927;28;20205;-77
2024/01/18 04:52:53;;;;;;;7.30;6.65;;;1.20;99.90;;;;;;5079426;27;20889;-78
2024/01/18 04:55:21;;;;;;;7.65;7.05;;;1.20;99.90;;;;;;5079514;28;20213;-78
2024/01/18 04:57:50;;;;;;;8.25;7.65;;;1.20;99.90;;;;;;5088736;28;20217;-77
2024/01/18 05:00:19;;;;;;;7.75;7.15;;;1.20;99.90;;;;;;5082102;28;20237;-78
2024/01/18 05:02:47;;;;;;;7.97;7.38;;;1.20;99.90;;;;;;5083913;28;20216;-78
2024/01/18 05:05:14;;;;;;;7.50;6.90;;;1.30;99.90;;;;;;5082413;28;20651;-77
2024/01/18 05:07:42;;;;;;;8.10;7.40;;;1.20;99.90;;;;;;5087489;28;20219;-78
2024/01/18 05:10:10;;;;;;;7.53;6.93;;;1.30;99.90;;;;;;5088739;28;20653;-78
2024/01/18 05:12:37;;;;;;;8.02;7.32;;;1.30;99.90;;;;;;5091565;28;20220;-77
2024/01/18 05:15:07;;;;;;;7.57;6.97;;;1.30;99.90;;;;;;5081229;28;20241;-78
2024/01/18 05:17:36;;;;;;;7.45;6.78;;;1.30;99.90;;;;;;5082588;28;20213;-77
2024/01/18 05:20:04;;;;;;;7.72;7.13;;;1.30;99.90;;;;;;5081471;28;20276;-77
2024/01/18 05:22:31;;;;;;;7.53;6.95;;;1.30;99.90;;;;;;5085409;28;20355;-78
2024/01/18 05:24:59;;;;;;;7.90;7.30;;;1.30;99.90;;;;;;5085809;28;20223;-78
2024/01/18 05:27:29;;;;;;;7.90;7.28;;;1.40;99.90;;;;;;5080929;28;20290;-77
2024/01/18 05:29:56;;;;;;;8.35;7.65;;;1.40;99.90;;;;;;5081590;28;20206;-78
2024/01/18 05:32:24;;;;;;;7.47;6.78;;;1.40;99.90;;;;;;5085678;28;20969;-78
2024/01/18 05:34:53;;;;;;;8.48;7.68;;;1.40;99.90;;;;;;5090464;28;20216;-77
2024/01/18 05:37:22;;;;;;;9.75;8.88;;;1.40;99.90;;;;;;5089273;28;20885;-78
2024/01/18 05:39:51;;;;;;;9.95;9.05;;;1.30;99.90;;;;;;5092546;28;20236;-78
2024/01/18 05:42:19;;;;;;;9.15;8.35;;;1.20;99.90;;;;;;5076481;28;20889;-78
2024/01/18 05:44:46;;;;;;;10.05;9.15;;;1.20;99.90;;;;;;5092123;28;20224;-78
2024/01/18 05:47:13;;;;;;;10.23;9.32;;;1.20;99.90;;;;;;5088040;28;20236;-78
2024/01/18 05:49:40;;;;;;;10.43;9.57;;;1.20;99.90;;;;;;5089755;28;20201;-78
2024/01/18 05:52:09;;;;;;;10.52;9.52;;;1.10;99.90;;;;;;5078414;28;20220;-78
2024/01/18 05:54:36;;;;;;;9.93;9.13;;;1.20;99.90;;;;;;5067016;28;20210;-78
2024/01/18 05:57:04;;;;;;;10.05;9.15;;;1.20;99.90;;;;;;5068315;28;20769;-77
2024/01/18 05:59:31;;;;;;;9.70;9.00;;;1.20;99.90;;;;;;5062253;28;20256;-78
2024/01/18 06:01:58;;;;;;;9.30;8.50;;;1.20;99.90;;;;;;5061509;28;20214;-78
2024/01/18 06:04:25;;;;;;;12.02;10.93;;;1.30;99.90;;;;;;5060832;28;20301;-77
2024/01/18 06:06:53;;;;;;;10.77;9.85;;;1.30;99.90;;;;;;5061125;28;20240;-78
2024/01/18 06:09:21;;;;;;;10.15;9.35;;;1.20;99.90;;;;;;5070505;28;20643;-78
2024/01/18 06:11:49;;;;;;;10.77;9.90;;;1.20;99.90;;;;;;5073095;28;20236;-78
2024/01/18 06:14:16;;;;;;;10.60;9.73;;;1.20;99.90;;;;;;5084651;28;20220;-78
2024/01/18 06:16:43;;;;;;;9.43;8.63;;;1.20;99.90;;;;;;5083138;28;20793;-77
2024/01/18 06:19:11;;;;;;;9.48;8.68;;;1.20;99.90;;;;;;5087640;28;20202;-78
2024/01/18 06:21:38;;;;;;;7.57;6.97;;;1.20;99.90;;;;;;5081326;28;20252;-78
2024/01/18 06:24:06;;;;;;;8.68;7.97;;;1.20;99.90;;;;;;5070043;28;20233;-78
2024/01/18 06:26:34;;;;;;;9.15;8.35;;;1.30;99.90;;;;;;5073117;28;20222;-78
2024/01/18 06:29:03;;;;;;;8.43;7.72;;;1.30;99.90;;;;;;5078000;28;20197;-78
2024/01/18 06:31:30;;;;;;;8.02;7.43;;;1.40;99.90;;;;;;5083515;28;20226;-77
2024/01/18 06:33:57;;;;;;;8.38;7.68;;;1.40;99.90;;;;;;5085458;28;20275;-78
2024/01/18 06:36:24;;;;;;;8.30;7.60;;;1.40;99.90;;;;;;5087309;28;20271;-78
2024/01/18 06:38:51;;;;;;;9.35;8.55;;;1.40;99.90;;;;;;5084046;28;20214;-78
2024/01/18 06:41:19;;;;;;;8.75;7.95;;;1.40;99.90;;;;;;5076311;28;20210;-77
2024/01/18 06:43:50;;;;;;;7.63;7.03;;;1.40;99.90;;;;;;5087809;28;20223;-78
2024/01/18 06:46:18;;;;;;;9.27;8.50;;;1.50;99.90;;;;;;5088587;28;20699;-78
2024/01/18 06:48:52;;;;;;;8.70;7.90;;;1.50;99.90;;;;;;5086619;28;20671;-78
2024/01/18 06:51:20;;;;;;;9.77;8.98;;;1.40;99.90;;;;;;5087411;28;20202;-78
2024/01/18 06:53:47;;;;;;;10.27;9.30;;;1.30;99.90;;;;;;5081005;28;20204;-78
2024/01/18 06:56:15;;;;;;;10.05;9.15;;;1.30;99.90;;;;;;5082539;28;20218;-78
2024/01/18 06:58:42;;;;;;;10.38;9.48;;;1.20;99.90;;;;;;5088073;28;20685;-78
2024/01/18 07:01:12;;;;;;;10.35;9.52;;;1.20;99.90;;;;;;5088697;28;20208;-79
2024/01/18 07:03:41;;;;;;;10.15;9.25;;;1.10;99.90;;;;;;5084644;28;20925;-78
2024/01/18 07:06:09;;;;;;;9.35;8.52;;;1.10;99.90;;;;;;5081956;28;20386;-78
2024/01/18 07:08:37;;;;;;;10.88;9.98;;;1.10;99.90;;;;;;5075912;28;20316;-78
2024/01/18 07:11:04;;;;;;;10.73;9.82;;;1.20;99.90;;;;;;5085884;28;20236;-77
2024/01/18 07:13:31;;;;;;;11.30;10.38;;;1.20;99.90;;;;;;5084641;28;20217;-78
2024/01/18 07:15:58;;;;;;;11.93;10.88;;;1.20;99.90;;;;;;5089946;28;20221;-77
2024/01/18 07:18:27;;;;;;;11.90;10.90;;;1.10;99.90;;;;;;5066695;28;20711;-78
2024/01/18 07:20:54;;;;;;;11.98;10.93;;;1.10;99.90;;;;;;5071046;28;20200;-77
2024/01/18 07:23:21;;;;;;;13.38;12.15;;;1.00;99.90;;;;;;5081480;28;20232;-78
2024/01/18 07:25:48;;;;;;;12.93;11.80;;;0.90;99.90;;;;;;5092539;28;20238;-78
2024/01/18 07:28:15;;;;;;;12.70;11.48;;;1.00;99.90;;;;;;5081222;28;20217;-78
2024/01/18 07:30:43;;;;;;;11.45;10.45;;;1.00;99.90;;;;;;5082806;28;20209;-78
2024/01/18 07:33:10;;;;;;;11.10;10.20;;;1.10;99.90;;;;;;5084107;28;20313;-79
2024/01/18 07:35:39;;;;;;;11.70;10.65;;;1.20;99.90;;;;;;5073819;28;20301;-78
2024/01/18 07:38:06;;;;;;;11.48;10.48;;;1.30;99.90;;;;;;5081214;28;20218;-78
2024/01/18 07:40:33;;;;;;;11.63;10.63;;;1.30;99.90;;;;;;5081427;28;20232;-76
2024/01/18 07:43:00;;;;;;;11.18;10.02;;;1.40;99.90;;;;;;5078313;28;20229;-78
2024/01/18 07:45:27;;;;;;;11.48;10.57;;;1.50;99.90;;;;;;5077158;28;20217;-78
2024/01/18 07:47:54;;;;;;;11.77;10.75;;;1.50;99.90;;;;;;5077390;28;20229;-78
2024/01/18 07:50:21;;;;;;;10.73;9.82;;;1.50;99.90;;;;;;5079235;28;20251;-79
2024/01/18 07:52:50;;;;;;;11.00;10.00;;;1.60;99.90;;;;;;5078329;28;20221;-78
2024/01/18 07:55:18;;;;;;;11.90;10.80;;;1.60;99.90;;;;;;5078511;28;20244;-76
2024/01/18 07:57:45;;;;;;;11.07;10.18;;;1.70;99.90;;;;;;5075390;28;20221;-78
2024/01/18 08:00:14;;;;;;;10.88;9.88;;;1.80;99.90;;;;;;5082214;28;20209;-78
2024/01/18 08:02:41;;;;;;;11.70;10.50;;;1.80;99.90;;;;;;5082258;28;20769;-77
2024/01/18 08:05:08;;;;;;;11.93;10.77;;;1.90;99.90;;;;;;5076884;28;20229;-77
2024/01/18 08:07:35;;;;;;;11.98;10.77;;;2.00;99.90;;;;;;5074053;28;20219;-78
2024/01/18 08:10:04;;;;;;;15.80;14.15;;;2.00;99.90;;;;;;5080755;28;20204;-77
2024/01/18 08:12:31;;;;;;;16.25;14.65;;;2.10;99.90;;;;;;5080501;28;21032;-77
2024/01/18 08:14:58;;;;;;;16.80;15.15;;;2.00;99.90;;;;;;5076178;28;20222;-79
2024/01/18 08:17:25;;;;;;;15.45;14.05;;;2.00;99.90;;;;;;5083285;28;20222;-79
2024/01/18 08:19:52;;;;;;;13.27;12.18;;;2.00;99.90;;;;;;5083470;28;20283;-79
2024/01/18 08:22:20;;;;;;;14.50;13.15;;;2.10;99.90;;;;;;5082458;28;20233;-79
2024/01/18 08:24:47;;;;;;;13.98;12.68;;;2.20;99.90;;;;;;5080289;28;20787;-78
2024/01/18 08:27:15;;;;;;;13.75;12.40;;;2.40;99.90;;;;;;5075196;28;20221;-78
2024/01/18 08:29:41;;;;;;;12.98;11.80;;;2.50;99.90;;;;;;5078691;28;20205;-78
2024/01/18 08:32:08;;;;;;;12.07;10.98;;;2.60;99.90;;;;;;5079947;28;20244;-78
2024/01/18 08:34:36;;;;;;;11.35;10.30;;;2.60;99.90;;;;;;5079140;28;20224;-78
2024/01/18 08:37:04;;;;;;;11.35;10.32;;;2.60;99.90;;;;;;5084529;28;20316;-78
2024/01/18 08:39:31;;;;;;;10.60;9.60;;;2.60;99.90;;;;;;5078491;28;20234;-78
2024/01/18 08:41:59;;;;;;;13.32;11.15;;;2.60;99.90;;;;;;5077417;28;20218;-78
2024/01/18 08:44:29;;;;;;;11.15;9.90;;;2.60;99.90;;;;;;5079913;28;20854;-78
2024/01/18 08:46:57;;;;;;;12.65;11.45;;;2.50;99.90;;;;;;5078343;28;20257;-79
2024/01/18 08:49:24;;;;;;;12.40;11.15;;;2.60;99.90;;;;;;5079754;28;20987;-77
2024/01/18 08:51:53;;;;;;;13.00;11.80;;;2.70;99.90;;;;;;5081613;28;20284;-79
2024/01/18 08:54:21;;;;;;;12.55;11.38;;;2.70;99.90;;;;;;5079356;28;20250;-79
2024/01/18 08:56:48;;;;;;;12.60;11.50;;;2.70;99.90;;;;;;5075750;28;20249;-79
2024/01/18 08:59:16;;;;;;;12.63;11.43;;;2.80;99.90;;;;;;5080840;28;20237;-78
2024/01/18 09:01:44;;;;;;;11.82;10.75;;;2.80;99.90;;;;;;5080373;28;20249;-78
2024/01/18 09:04:11;;;;;;;12.60;11.38;;;2.80;99.90;;;;;;5078329;28;20783;-78
2024/01/18 09:06:39;;;;;;;13.38;12.07;;;2.80;99.90;;;;;;5077121;28;20257;-77
2024/01/18 09:09:09;;;;;;;14.45;12.98;;;2.80;99.90;;;;;;5084730;28;20222;-77
2024/01/18 09:11:36;;;;;;;14.48;12.98;;;2.90;99.90;;;;;;5079925;28;20201;-77
2024/01/18 09:14:03;;;;;;;14.90;13.60;;;3.00;99.90;;;;;;5081513;28;20217;-78
2024/01/18 09:16:31;;;;;;;16.05;14.55;;;3.20;99.90;;;;;;5072671;28;20228;-77
2024/01/18 09:19:00;;;;;;;16.73;15.05;;;3.30;99.90;;;;;;5079632;28;20201;-78
2024/01/18 09:21:28;;;;;;;16.55;14.35;;;3.60;99.90;;;;;;5085260;28;20232;-77
2024/01/18 09:23:55;;;;;;;15.05;13.50;;;3.90;99.90;;;;;;5085306;28;20202;-78
2024/01/18 09:26:21;;;;;;;16.15;14.73;;;4.10;99.90;;;;;;5082865;28;20226;-78
2024/01/18 09:28:49;;;;;;;16.55;15.05;;;4.40;99.90;;;;;;5078105;28;20316;-79
2024/01/18 09:31:16;;;;;;;14.93;13.52;;;4.60;99.90;;;;;;5089471;28;20201;-78
2024/01/18 09:33:43;;;;;;;15.38;13.90;;;4.70;99.90;;;;;;5090962;28;20236;-78
2024/01/18 09:36:11;;;;;;;17.02;14.80;;;4.70;99.90;;;;;;5094928;28;20236;-79
2024/01/18 09:38:38;;;;;;;15.43;14.05;;;4.70;99.90;;;;;;5079314;28;20789;-77
2024/01/18 09:41:09;;;;;;;15.15;13.65;;;4.80;99.90;;;;;;5085844;28;20206;-77
2024/01/18 09:43:37;;;;;;;16.00;13.45;;;4.80;99.90;;;;;;5084023;28;20231;-78
2024/01/18 09:46:06;;;;;;;15.52;13.93;;;4.90;99.90;;;;;;5092577;28;21140;-77
2024/01/18 09:48:33;;;;;;;14.65;13.23;;;5.00;99.90;;;;;;5085864;28;20764;-77
2024/01/18 09:51:01;;;;;;;16.20;14.57;;;5.40;99.90;;;;;;5083037;28;20205;-78
2024/01/18 09:53:30;;;;;;;16.08;14.40;;;5.70;99.90;;;;;;5061247;28;20222;-78
2024/01/18 09:56:05;;;;;;;16.30;14.60;;;6.20;99.90;;;;;;5058431;28;20219;-77
2024/01/18 09:58:34;;;;;;;17.02;15.40;;;6.70;99.90;;;;;;5059062;28;20233;-77
2024/01/18 10:01:04;;;;;;;14.32;12.77;;;7.00;99.90;;;;;;5063433;28;20206;-78
2024/01/18 10:03:31;;;;;;;13.52;12.32;;;6.90;99.90;;;;;;5059149;28;20810;-77
2024/01/18 10:06:00;;;;;;;12.02;10.80;;;7.00;99.90;;;;;;5058478;28;20218;-77
2024/01/18 10:08:28;;;;;;;18.67;13.88;;;7.20;99.90;;;;;;5055817;28;20213;-76
2024/01/18 10:10:56;;;;;;;18.02;14.63;;;7.40;99.90;;;;;;5057022;28;20198;-78
2024/01/18 10:13:23;;;;;;;19.27;14.57;;;7.80;99.90;;;;;;5055561;28;20965;-80
2024/01/18 10:15:50;;;;;;;14.98;13.40;;;8.00;99.90;;;;;;5060281;28;20225;-77
2024/01/18 10:18:19;;;;;;;14.68;13.13;;;8.10;99.90;;;;;;5075566;28;20217;-77
2024/01/18 10:20:48;;;;;;;15.40;13.90;;;8.00;99.90;;;;;;5079663;28;20201;-75
2024/01/18 10:23:16;;;;;;;14.10;12.80;;;7.70;99.90;;;;;;5082345;28;20221;-77
2024/01/18 10:25:44;;;;;;;13.63;12.30;;;7.30;99.90;;;;;;5087998;28;20812;-79
2024/01/18 10:28:14;;;;;;;17.20;15.30;;;6.80;99.90;;;;;;5088336;28;20904;-80
2024/01/18 10:30:41;;;;;;;16.90;14.68;;;6.50;99.90;;;;;;5090037;28;20215;-78
2024/01/18 10:33:11;;;;;;;14.60;13.10;;;6.40;99.90;;;;;;5090082;28;20232;-79
2024/01/18 10:35:38;;;;;;;13.77;12.43;;;6.30;99.90;;;;;;5090229;28;20222;-78
2024/01/18 10:38:07;;;;;;;13.90;12.60;;;6.40;99.90;;;;;;5092945;28;20221;-79
2024/01/18 10:40:36;;;;;;;14.20;12.80;;;6.40;99.90;;;;;;5084821;28;20259;-78
2024/01/18 10:43:03;;;;;;;13.00;11.80;;;6.30;99.90;;;;;;5088029;28;20271;-79
2024/01/18 10:45:32;;;;;;;13.38;12.18;;;6.10;99.90;;;;;;5085628;28;20222;-79
2024/01/18 10:48:00;;;;;;;13.00;11.77;;;5.90;99.90;;;;;;5088004;28;20684;-79
2024/01/18 10:50:27;;;;;;;13.57;12.27;;;5.70;99.90;;;;;;5084297;28;20296;-77
2024/01/18 10:52:55;;;;;;;13.18;11.68;;;5.60;99.90;;;;;;5084065;28;20311;-80
2024/01/18 10:55:22;;;;;;;13.95;12.38;;;5.50;99.90;;;;;;5082035;28;20224;-77
2024/01/18 10:57:49;;;;;;;13.70;12.38;;;5.50;99.90;;;;;;5079409;28;20240;-79
2024/01/18 11:00:19;;;;;;;14.13;12.82;;;5.40;99.90;;;;;;5087313;28;20201;-78
2024/01/18 11:02:48;;;;;;;14.23;12.95;;;5.40;99.90;;;;;;5084126;28;20217;-78
2024/01/18 11:05:17;;;;;;;14.65;13.15;;;5.30;99.90;;;;;;5082499;28;20217;-78
2024/01/18 11:07:44;;;;;;;16.73;14.95;;;5.30;99.90;;;;;;5085857;28;20218;-77
2024/01/18 11:10:12;;;;;;;14.85;13.35;;;5.40;99.90;;;;;;5085264;28;20209;-78
2024/01/18 11:12:41;;;;;;;14.82;13.32;;;5.30;99.90;;;;;;5082305;28;20216;-78
2024/01/18 11:15:11;;;;;;;13.88;12.57;;;5.30;99.90;;;;;;5080904;28;20245;-78
2024/01/18 11:17:45;;;;;;;13.63;12.38;;;5.20;99.90;;;;;;5070792;28;20289;-77
2024/01/18 11:20:14;;;;;;;13.60;12.40;;;5.20;99.90;;;;;;5082082;28;20257;-81
2024/01/18 11:22:42;;;;;;;14.90;13.48;;;5.30;99.90;;;;;;5086971;28;20218;-79
2024/01/18 11:25:11;;;;;;;14.82;13.32;;;5.30;99.90;;;;;;5084733;28;20824;-80
2024/01/18 11:27:38;;;;;;;14.77;13.25;;;5.50;99.90;;;;;;5082960;28;20225;-78
2024/01/18 11:30:09;;;;;;;14.65;13.15;;;5.60;99.90;;;;;;5079940;28;20239;-78
2024/01/18 11:32:36;;;;;;;14.20;12.82;;;5.70;99.90;;;;;;5086115;28;20217;-79
2024/01/18 11:35:14;;;;;;;13.75;12.32;;;5.80;99.90;;;;;;5084482;28;20228;-80
2024/01/18 11:37:41;;;;;;;12.75;11.63;;;5.90;99.90;;;;;;5085406;28;20316;-79
2024/01/18 11:40:12;;;;;;;14.85;12.43;;;6.00;99.90;;;;;;5080831;28;20205;-77
2024/01/18 11:42:40;;;;;;;13.25;11.95;;;6.00;99.90;;;;;;5083166;28;20760;-78
2024/01/18 11:45:16;;;;;;;14.65;13.25;;;6.10;99.90;;;;;;5081265;28;20229;-80
2024/01/18 11:47:43;;;;;;;15.43;14.02;;;6.10;99.90;;;;;;5081095;28;20252;-81
2024/01/18 11:50:13;;;;;;;15.05;12.95;;;5.90;99.90;;;;;;5082072;28;20214;-79
2024/01/18 11:52:41;;;;;;;14.80;13.40;;;5.80;99.90;;;;;;5079092;28;20225;-79
2024/01/18 11:55:11;;;;;;;14.55;13.10;;;5.70;99.90;;;;;;5077533;28;20249;-79
2024/01/18 11:57:38;;;;;;;14.10;12.80;;;5.70;99.90;;;;;;5076236;28;20236;-81
2024/01/18 12:00:06;;;;;;;15.30;13.80;;;5.70;99.90;;;;;;5087282;28;20202;-80
2024/01/18 12:02:33;;;;;;;14.40;12.98;;;5.70;99.90;;;;;;5089807;28;20251;-79
2024/01/18 12:05:00;;;;;;;14.38;13.00;;;5.60;99.90;;;;;;5079116;28;20225;-77
2024/01/18 12:07:29;;;;;;;15.32;13.77;;;5.50;99.90;;;;;;5079738;27;20214;-78
2024/01/18 12:09:57;;;;;;;14.40;13.10;;;5.50;99.90;;;;;;5084103;28;20202;-79
2024/01/18 12:12:24;;;;;;;15.25;13.85;;;5.50;99.90;;;;;;5089358;28;20222;-80
2024/01/18 12:14:52;;;;;;;16.88;15.25;;;5.60;99.90;;;;;;5081006;28;20220;-81
2024/01/18 12:17:19;;;;;;;19.33;16.65;;;5.70;99.90;;;;;;5085967;28;20229;-80
2024/01/18 12:19:47;;;;;;;16.88;15.25;;;5.80;99.90;;;;;;5094908;28;20216;-79
2024/01/18 12:22:16;;;;;;;18.02;15.68;;;5.80;99.90;;;;;;5095075;27;20232;-81
2024/01/18 12:24:49;;;;;;;17.45;15.73;;;5.80;99.90;;;;;;5092021;28;20457;-79
2024/01/18 12:27:17;;;;;;;15.35;13.82;;;5.80;99.90;;;;;;5087160;28;20224;-80
2024/01/18 12:29:45;;;;;;;13.35;12.10;;;5.70;99.90;;;;;;5090555;28;20202;-80
2024/01/18 12:32:16;;;;;;;14.55;13.18;;;5.50;99.90;;;;;;5086193;28;21583;-78
2024/01/18 12:34:43;;;;;;;15.43;14.02;;;5.40;99.90;;;;;;5092298;28;20200;-78
2024/01/18 12:37:13;;;;;;;15.05;13.55;;;5.20;99.90;;;;;;5088177;28;20710;-79
2024/01/18 12:39:40;;;;;;;16.85;14.57;;;5.20;99.90;;;;;;5086941;28;20247;-78
2024/01/18 12:42:10;;;;;;;14.82;13.38;;;5.00;99.90;;;;;;5081107;28;20225;-78
2024/01/18 12:44:37;;;;;;;15.27;13.68;;;4.90;99.90;;;;;;5079953;28;20197;-77
2024/01/18 12:47:04;;;;;;;15.00;13.30;;;4.90;99.90;;;;;;5082522;28;20238;-76
2024/01/18 12:49:31;;;;;;;15.73;14.13;;;4.90;99.90;;;;;;5080828;28;20201;-77
2024/01/18 12:52:01;;;;;;;13.43;12.02;;;4.90;99.90;;;;;;5082434;28;20316;-79